Time;durP1;ratioP1;P1;durP2;ratioP2;P2;SDS_P1;SDS_P2;PMS_P1;PMS_P2;Temp;Humidity;BMP_temperature;BMP_pressure;BME280_temperature;BME280_humidity;BME280_pressure;Samples;Min_cycle;Max_cycle;Signal;HPM_P1;HPM_P2
2021/08/04 00:01:21;;;;;;;;;;;24.40;63.40;;;;;;5135944;27;20021;-59
2021/08/04 00:03:48;;;;;;;;;;;24.40;63.50;;;;;;5137621;27;19962;-60
2021/08/04 00:06:32;;;;;;;;;;;24.40;63.50;;;;;;5136732;27;20457;-59
2021/08/04 00:08:59;;;;;;;;;;;24.40;63.50;;;;;;5119130;27;19924;-60
2021/08/04 00:11:26;;;;;;;;;;;24.40;63.50;;;;;;5119438;27;19935;-60
2021/08/04 00:13:53;;;;;;;;;;;24.40;63.50;;;;;;5120641;27;19927;-60
2021/08/04 00:16:20;;;;;;;;;;;24.40;63.50;;;;;;5134695;27;20005;-59
2021/08/04 00:18:47;;;;;;;;;;;24.40;63.50;;;;;;5118769;27;20379;-60
2021/08/04 00:21:14;;;;;;;;;;;24.40;63.50;;;;;;5135626;27;19924;-59
2021/08/04 00:23:41;;;;;;;;;;;24.40;63.50;;;;;;5135905;27;19950;-60
2021/08/04 00:26:08;;;;;;;;;;;24.40;63.50;;;;;;5135761;27;19967;-61
2021/08/04 00:28:36;;;;;;;;;;;24.40;63.50;;;;;;5108650;28;20014;-60
2021/08/04 00:31:03;;;;;;;;;;;24.40;63.50;;;;;;5129145;27;19924;-60
2021/08/04 00:33:30;;;;;;;;;;;24.40;63.50;;;;;;5134851;27;20328;-60
2021/08/04 00:35:57;;;;;;;;;;;24.40;63.50;;;;;;5136057;27;19924;-59
2021/08/04 00:38:24;;;;;;;;;;;24.40;63.60;;;;;;5135259;27;19931;-59
2021/08/04 00:40:50;;;;;;;;;;;24.40;63.60;;;;;;5135942;27;20335;-60
2021/08/04 00:43:17;;;;;;;;;;;24.40;63.60;;;;;;5132605;27;19924;-59
2021/08/04 00:45:44;;;;;;;;;;;24.40;64.30;;;;;;5119294;27;19923;-59
2021/08/04 00:48:11;;;;;;;;;;;24.40;63.80;;;;;;5120981;27;19934;-59
2021/08/04 00:50:39;;;;;;;;;;;24.40;63.60;;;;;;5133525;27;19924;-59
2021/08/04 00:53:21;;;;;;;;;;;24.40;63.60;;;;;;5118565;27;19924;-59
2021/08/04 00:55:49;;;;;;;;;;;24.40;63.70;;;;;;5122057;27;19928;-59
2021/08/04 00:58:17;;;;;;;;;;;24.40;63.60;;;;;;5136498;27;19942;-59
2021/08/04 01:00:49;;;;;;;;;;;24.40;64.40;;;;;;5134941;27;20014;-59
2021/08/04 01:03:20;;;;;;;;;;;24.30;63.60;;;;;;5118300;27;19984;-60
2021/08/04 01:05:59;;;;;;;;;;;24.30;63.60;;;;;;5119930;27;19929;-59
2021/08/04 01:08:30;;;;;;;;;;;24.40;63.80;;;;;;5134860;27;19923;-60
2021/08/04 01:10:58;;;;;;;;;;;24.40;63.80;;;;;;5134612;27;20375;-60
2021/08/04 01:13:33;;;;;;;;;;;24.40;63.70;;;;;;5134886;27;20014;-59
2021/08/04 01:16:03;;;;;;;;;;;24.30;63.70;;;;;;5118277;27;19966;-59
2021/08/04 01:18:35;;;;;;;;;;;24.30;63.70;;;;;;5115954;28;19932;-60
2021/08/04 01:21:02;;;;;;;;;;;24.40;63.80;;;;;;5118292;27;19975;-59
2021/08/04 01:23:52;;;;;;;;;;;24.40;63.80;;;;;;5135025;27;19945;-59
2021/08/04 01:26:30;;;;;;;;;;;24.30;63.70;;;;;;5117650;27;19924;-59
2021/08/04 01:28:59;;;;;;;;;;;24.40;63.70;;;;;;5135638;27;20058;-60
2021/08/04 01:31:27;;;;;;;;;;;24.40;63.70;;;;;;5134675;27;19930;-59
2021/08/04 01:33:55;;;;;;;;;;;24.40;63.70;;;;;;5134427;27;20333;-59
2021/08/04 01:36:22;;;;;;;;;;;24.40;63.70;;;;;;5125544;27;19928;-59
2021/08/04 01:38:50;;;;;;;;;;;24.40;63.70;;;;;;5134641;27;19923;-59
2021/08/04 01:41:17;;;;;;;;;;;24.30;63.60;;;;;;5135637;27;19972;-62
2021/08/04 01:43:44;;;;;;;;;;;24.30;63.70;;;;;;5133944;27;20263;-59
2021/08/04 01:46:13;;;;;;;;;;;24.40;63.80;;;;;;5135378;27;19924;-59
2021/08/04 01:48:40;;;;;;;;;;;24.40;63.80;;;;;;5132895;27;19927;-59
2021/08/04 01:51:08;;;;;;;;;;;24.30;63.60;;;;;;5135274;27;20393;-60
2021/08/04 01:53:36;;;;;;;;;;;24.40;63.70;;;;;;5133792;27;19924;-60
2021/08/04 01:56:03;;;;;;;;;;;24.40;63.70;;;;;;5133761;27;19923;-60
2021/08/04 01:58:31;;;;;;;;;;;24.30;63.60;;;;;;5135081;27;19924;-59
2021/08/04 02:00:58;;;;;;;;;;;24.30;63.70;;;;;;5135074;27;19930;-59
2021/08/04 02:03:25;;;;;;;;;;;24.30;63.70;;;;;;5135103;27;19923;-60
2021/08/04 02:05:53;;;;;;;;;;;24.30;63.70;;;;;;5125947;27;20444;-59
2021/08/04 02:08:32;;;;;;;;;;;24.30;63.70;;;;;;5116523;27;19924;-60
2021/08/04 02:10:59;;;;;;;;;;;24.30;63.70;;;;;;5127090;27;20375;-59
2021/08/04 02:13:26;;;;;;;;;;;24.30;63.70;;;;;;5134740;27;20437;-60
2021/08/04 02:16:13;;;;;;;;;;;24.40;63.70;;;;;;5131177;27;19923;-59
2021/08/04 02:18:46;;;;;;;;;;;24.40;63.70;;;;;;5131501;27;20271;-60
2021/08/04 02:21:15;;;;;;;;;;;24.40;63.80;;;;;;5134794;27;19924;-59
2021/08/04 02:23:44;;;;;;;;;;;24.40;63.70;;;;;;5133624;27;19966;-60
2021/08/04 02:26:12;;;;;;;;;;;24.40;63.70;;;;;;5134449;27;19923;-61
2021/08/04 02:28:42;;;;;;;;;;;24.40;63.80;;;;;;5115166;27;20375;-60
2021/08/04 02:31:11;;;;;;;;;;;24.40;63.90;;;;;;5134571;27;19924;-59
2021/08/04 02:33:39;;;;;;;;;;;24.40;63.80;;;;;;5133105;27;20629;-59
2021/08/04 02:36:06;;;;;;;;;;;24.40;63.90;;;;;;5131683;27;19923;-60
2021/08/04 02:38:33;;;;;;;;;;;24.40;63.90;;;;;;5134336;27;19984;-60
2021/08/04 02:41:01;;;;;;;;;;;24.40;63.90;;;;;;5132877;27;19946;-60
2021/08/04 02:43:31;;;;;;;;;;;24.40;63.90;;;;;;5133089;27;20007;-60
2021/08/04 02:45:58;;;;;;;;;;;24.40;63.90;;;;;;5134573;27;20406;-59
2021/08/04 02:48:26;;;;;;;;;;;24.30;63.80;;;;;;5134332;27;20022;-59
2021/08/04 02:50:57;;;;;;;;;;;24.30;64.00;;;;;;5133144;27;20294;-59
2021/08/04 02:53:25;;;;;;;;;;;24.30;63.90;;;;;;5132921;27;19923;-60
2021/08/04 02:55:52;;;;;;;;;;;24.30;63.90;;;;;;5133275;27;20298;-60
2021/08/04 02:58:19;;;;;;;;;;;24.30;63.90;;;;;;5133176;27;20013;-60
2021/08/04 03:00:46;;;;;;;;;;;24.30;63.90;;;;;;5134510;27;19924;-61
2021/08/04 03:03:13;;;;;;;;;;;24.30;63.90;;;;;;5134256;27;19931;-59
2021/08/04 03:05:41;;;;;;;;;;;24.30;63.90;;;;;;5134474;27;19968;-60
2021/08/04 03:08:08;;;;;;;;;;;24.30;63.90;;;;;;5132579;27;19945;-60
2021/08/04 03:10:35;;;;;;;;;;;24.30;63.90;;;;;;5132725;27;19930;-60
2021/08/04 03:13:02;;;;;;;;;;;24.30;63.90;;;;;;5133009;27;20279;-60
2021/08/04 03:15:29;;;;;;;;;;;24.30;63.80;;;;;;5132939;27;20356;-60
2021/08/04 03:17:56;;;;;;;;;;;24.30;63.80;;;;;;5133755;27;20332;-60
2021/08/04 03:20:23;;;;;;;;;;;24.40;63.90;;;;;;5132584;27;19927;-60
2021/08/04 03:22:50;;;;;;;;;;;24.30;63.70;;;;;;5132766;27;19924;-60
2021/08/04 03:25:18;;;;;;;;;;;24.30;63.80;;;;;;5124757;27;19984;-60
2021/08/04 03:27:45;;;;;;;;;;;24.30;63.80;;;;;;5123560;27;19976;-60
2021/08/04 03:30:13;;;;;;;;;;;24.30;63.80;;;;;;5133835;27;19927;-60
2021/08/04 03:32:40;;;;;;;;;;;24.30;63.80;;;;;;5132452;27;19946;-60
2021/08/04 03:35:08;;;;;;;;;;;24.40;63.90;;;;;;5130901;27;19956;-59
2021/08/04 03:37:35;;;;;;;;;;;24.30;63.70;;;;;;5118500;28;20416;-60
2021/08/04 03:40:03;;;;;;;;;;;24.30;63.70;;;;;;5132453;28;20011;-60
2021/08/04 03:42:30;;;;;;;;;;;24.30;63.70;;;;;;5132137;28;19923;-60
2021/08/04 03:44:56;;;;;;;;;;;24.30;63.70;;;;;;5115777;28;19973;-60
2021/08/04 03:47:23;;;;;;;;;;;24.30;63.80;;;;;;5132101;28;19929;-59
2021/08/04 03:49:50;;;;;;;;;;;24.30;63.70;;;;;;5114612;28;19924;-59
2021/08/04 03:52:17;;;;;;;;;;;24.30;63.70;;;;;;5115245;28;19923;-59
2021/08/04 03:54:45;;;;;;;;;;;24.30;63.70;;;;;;5133424;28;19977;-61
2021/08/04 03:57:12;;;;;;;;;;;24.30;63.70;;;;;;5131380;28;19928;-60
2021/08/04 03:59:39;;;;;;;;;;;24.30;63.80;;;;;;5117286;28;20006;-60
2021/08/04 04:02:06;;;;;;;;;;;24.30;63.80;;;;;;5129189;28;19965;-60
2021/08/04 04:04:33;;;;;;;;;;;24.30;63.80;;;;;;5132463;28;19951;-60
2021/08/04 04:07:00;;;;;;;;;;;24.30;63.80;;;;;;5132602;28;19928;-59
2021/08/04 04:09:29;;;;;;;;;;;24.30;63.70;;;;;;5131958;28;19955;-60
2021/08/04 04:11:56;;;;;;;;;;;24.30;63.80;;;;;;5132076;28;19971;-59
2021/08/04 04:14:23;;;;;;;;;;;24.30;63.80;;;;;;5130876;28;19931;-60
2021/08/04 04:16:51;;;;;;;;;;;24.30;63.80;;;;;;5131724;28;20413;-60
2021/08/04 04:19:18;;;;;;;;;;;24.30;63.80;;;;;;5132015;28;19924;-60
2021/08/04 04:21:45;;;;;;;;;;;24.30;63.80;;;;;;5131781;28;19967;-60
2021/08/04 04:24:16;;;;;;;;;;;24.30;63.80;;;;;;5133075;28;19927;-59
2021/08/04 04:26:43;;;;;;;;;;;24.30;63.80;;;;;;5132242;28;20038;-60
2021/08/04 04:29:10;;;;;;;;;;;24.30;63.80;;;;;;5131514;28;19966;-60
2021/08/04 04:31:37;;;;;;;;;;;24.30;63.80;;;;;;5132999;28;19927;-60
2021/08/04 04:34:04;;;;;;;;;;;24.30;63.90;;;;;;5129707;28;20272;-59
2021/08/04 04:36:31;;;;;;;;;;;24.30;63.80;;;;;;5114432;28;20014;-60
2021/08/04 04:38:58;;;;;;;;;;;24.30;63.80;;;;;;5117610;28;20006;-59
2021/08/04 04:41:25;;;;;;;;;;;24.30;63.80;;;;;;5132350;27;19958;-59
2021/08/04 04:43:52;;;;;;;;;;;24.30;63.70;;;;;;5136086;27;19973;-59
2021/08/04 04:46:19;;;;;;;;;;;24.40;63.70;;;;;;5136660;27;19974;-60
2021/08/04 04:48:46;;;;;;;;;;;24.40;63.70;;;;;;5136785;27;19971;-60
2021/08/04 04:51:13;;;;;;;;;;;24.40;63.60;;;;;;5135838;27;19973;-59
2021/08/04 04:53:40;;;;;;;;;;;24.40;63.70;;;;;;5136677;27;19923;-59
2021/08/04 04:56:08;;;;;;;;;;;24.40;63.70;;;;;;5135033;27;19980;-60
2021/08/04 04:58:35;;;;;;;;;;;24.40;63.70;;;;;;5136332;27;20011;-59
2021/08/04 05:01:03;;;;;;;;;;;24.40;64.40;;;;;;5135886;27;20213;-59
2021/08/04 05:03:31;;;;;;;;;;;24.30;63.70;;;;;;5135772;27;20055;-60
2021/08/04 05:05:58;;;;;;;;;;;24.40;63.60;;;;;;5135380;27;20014;-59
2021/08/04 05:08:25;;;;;;;;;;;24.40;63.60;;;;;;5134656;27;20443;-59
2021/08/04 05:10:52;;;;;;;;;;;24.40;64.30;;;;;;5135286;27;19923;-59
2021/08/04 05:13:19;;;;;;;;;;;24.40;63.60;;;;;;5135152;27;19970;-59
2021/08/04 05:15:45;;;;;;;;;;;24.40;63.50;;;;;;5136065;27;19923;-59
2021/08/04 05:18:12;;;;;;;;;;;24.40;63.50;;;;;;5136292;27;19934;-60
2021/08/04 05:20:39;;;;;;;;;;;24.40;63.40;;;;;;5116529;27;19923;-59
2021/08/04 05:23:07;;;;;;;;;;;24.40;63.40;;;;;;5135970;27;19923;-59
2021/08/04 05:25:36;;;;;;;;;;;24.40;63.40;;;;;;5134792;27;20000;-59
2021/08/04 05:28:03;;;;;;;;;;;24.40;63.30;;;;;;5117381;27;19967;-59
2021/08/04 05:30:30;;;;;;;;;;;24.40;63.30;;;;;;5133079;27;20338;-59
2021/08/04 05:32:57;;;;;;;;;;;24.40;63.20;;;;;;5103125;27;19924;-60
2021/08/04 05:35:24;;;;;;;;;;;24.50;63.20;;;;;;5133404;27;19972;-59
2021/08/04 05:37:51;;;;;;;;;;;24.50;63.20;;;;;;5135851;27;19967;-60
2021/08/04 05:40:18;;;;;;;;;;;24.50;63.20;;;;;;5134588;27;19923;-59
2021/08/04 05:42:45;;;;;;;;;;;24.50;63.10;;;;;;5118210;27;20375;-60
2021/08/04 05:45:12;;;;;;;;;;;24.50;63.00;;;;;;5136010;27;19946;-60
2021/08/04 05:47:39;;;;;;;;;;;24.50;63.00;;;;;;5134307;27;20003;-59
2021/08/04 05:50:07;;;;;;;;;;;24.50;63.00;;;;;;5134296;27;19986;-60
2021/08/04 05:52:33;;;;;;;;;;;24.50;62.90;;;;;;5133830;27;19923;-60
2021/08/04 05:55:01;;;;;;;;;;;24.50;62.90;;;;;;5134548;27;19966;-60
2021/08/04 05:57:27;;;;;;;;;;;24.50;62.90;;;;;;5132294;27;19966;-59
2021/08/04 05:59:54;;;;;;;;;;;24.50;62.90;;;;;;5133063;27;19963;-60
2021/08/04 06:02:21;;;;;;;;;;;24.50;62.80;;;;;;5132470;27;19938;-60
2021/08/04 06:04:49;;;;;;;;;;;24.50;62.80;;;;;;5133447;27;19925;-59
2021/08/04 06:07:16;;;;;;;;;;;24.60;62.90;;;;;;5134198;27;19991;-59
2021/08/04 06:09:43;;;;;;;;;;;24.60;62.90;;;;;;5135022;27;19927;-59
2021/08/04 06:12:10;;;;;;;;;;;24.60;62.80;;;;;;5134765;27;19973;-60
2021/08/04 06:14:37;;;;;;;;;;;24.60;62.80;;;;;;5133838;27;19924;-59
2021/08/04 06:17:05;;;;;;;;;;;24.60;62.80;;;;;;5134844;27;19999;-60
2021/08/04 06:19:31;;;;;;;;;;;24.60;62.60;;;;;;5116758;27;19923;-60
2021/08/04 06:21:58;;;;;;;;;;;24.60;62.50;;;;;;5134678;27;20440;-59
2021/08/04 06:24:25;;;;;;;;;;;24.60;62.50;;;;;;5134732;27;19963;-59
2021/08/04 06:26:54;;;;;;;;;;;24.60;62.60;;;;;;5131217;27;20374;-59
2021/08/04 06:29:21;;;;;;;;;;;24.60;62.50;;;;;;5116808;27;20294;-60
2021/08/04 06:31:49;;;;;;;;;;;24.60;62.40;;;;;;5115742;27;20022;-59
2021/08/04 06:34:16;;;;;;;;;;;24.60;62.50;;;;;;5116358;27;19923;-60
2021/08/04 06:36:43;;;;;;;;;;;24.60;62.30;;;;;;5122646;27;19924;-59
2021/08/04 06:39:10;;;;;;;;;;;24.60;62.30;;;;;;5114276;27;19927;-59
2021/08/04 06:41:37;;;;;;;;;;;24.70;62.30;;;;;;5133792;27;19953;-59
2021/08/04 06:44:04;;;;;;;;;;;24.70;62.20;;;;;;5133690;27;19928;-59
2021/08/04 06:46:35;;;;;;;;;;;24.70;62.10;;;;;;5133149;27;19931;-59
2021/08/04 06:49:03;;;;;;;;;;;24.70;62.00;;;;;;5134430;27;19924;-59
2021/08/04 06:51:30;;;;;;;;;;;24.70;62.10;;;;;;5132267;27;20435;-59
2021/08/04 06:53:58;;;;;;;;;;;24.70;62.10;;;;;;5134001;27;19929;-59
2021/08/04 06:56:24;;;;;;;;;;;24.70;62.60;;;;;;5133635;27;19962;-59
2021/08/04 06:58:52;;;;;;;;;;;24.70;61.90;;;;;;5114203;27;20387;-59
2021/08/04 07:01:19;;;;;;;;;;;24.70;61.40;;;;;;5132798;27;20354;-59
2021/08/04 07:03:46;;;;;;;;;;;24.70;61.60;;;;;;5132417;27;19969;-59
2021/08/04 07:06:13;;;;;;;;;;;24.70;61.70;;;;;;5133489;27;20395;-59
2021/08/04 07:08:40;;;;;;;;;;;24.70;61.70;;;;;;5134058;27;19931;-59
2021/08/04 07:11:08;;;;;;;;;;;24.70;61.60;;;;;;5132635;27;19972;-59
2021/08/04 07:13:35;;;;;;;;;;;24.70;61.60;;;;;;5127469;27;19931;-59
2021/08/04 07:16:02;;;;;;;;;;;24.70;61.60;;;;;;5115501;27;19923;-59
2021/08/04 07:18:29;;;;;;;;;;;24.70;61.50;;;;;;5121482;27;19931;-59
2021/08/04 07:20:56;;;;;;;;;;;24.70;61.60;;;;;;5129886;27;19931;-59
2021/08/04 07:23:23;;;;;;;;;;;24.70;61.50;;;;;;5100357;27;20018;-59
2021/08/04 07:25:50;;;;;;;;;;;24.70;61.30;;;;;;5133469;27;19967;-60
2021/08/04 07:28:18;;;;;;;;;;;24.70;61.20;;;;;;5131548;27;19974;-59
2021/08/04 07:30:45;;;;;;;;;;;24.70;61.10;;;;;;5115712;28;19924;-59
2021/08/04 07:33:12;;;;;;;;;;;24.80;61.30;;;;;;5115497;27;20347;-59
2021/08/04 07:35:39;;;;;;;;;;;24.80;61.10;;;;;;5129891;27;19927;-60
2021/08/04 07:38:06;;;;;;;;;;;24.80;60.90;;;;;;5132831;28;19923;-59
2021/08/04 07:40:33;;;;;;;;;;;24.80;61.10;;;;;;5133379;27;19927;-59
2021/08/04 07:43:01;;;;;;;;;;;24.80;60.80;;;;;;5132277;28;19923;-58
2021/08/04 07:45:30;;;;;;;;;;;24.80;60.70;;;;;;5133418;28;19923;-59
2021/08/04 07:47:57;;;;;;;;;;;24.90;60.70;;;;;;5133632;28;20354;-59
2021/08/04 07:50:24;;;;;;;;;;;24.90;60.60;;;;;;5133284;28;19962;-59
2021/08/04 07:52:51;;;;;;;;;;;24.90;60.40;;;;;;5132474;28;19923;-59
2021/08/04 07:55:18;;;;;;;;;;;24.90;60.10;;;;;;5133084;28;20414;-59
2021/08/04 07:57:45;;;;;;;;;;;24.90;59.90;;;;;;5133616;28;20290;-59
2021/08/04 08:00:12;;;;;;;;;;;25.00;60.00;;;;;;5133359;28;19923;-59
2021/08/04 08:02:39;;;;;;;;;;;25.10;59.80;;;;;;5131842;28;19929;-60
2021/08/04 08:05:08;;;;;;;;;;;25.10;59.60;;;;;;5132329;28;19924;-59
2021/08/04 08:07:35;;;;;;;;;;;25.10;59.70;;;;;;5133555;28;19935;-58
2021/08/04 08:10:03;;;;;;;;;;;25.20;59.50;;;;;;5131934;28;19924;-59
2021/08/04 08:12:31;;;;;;;;;;;25.20;58.60;;;;;;5133241;28;19928;-59
2021/08/04 08:14:58;;;;;;;;;;;25.20;58.90;;;;;;5130866;28;19927;-59
2021/08/04 08:17:25;;;;;;;;;;;25.10;58.80;;;;;;5132841;27;19923;-59
2021/08/04 08:19:52;;;;;;;;;;;25.20;59.10;;;;;;5136131;27;19965;-59
2021/08/04 08:22:19;;;;;;;;;;;25.10;58.70;;;;;;5136210;27;20278;-59
2021/08/04 08:24:46;;;;;;;;;;;25.10;58.60;;;;;;5135265;27;19923;-59
2021/08/04 08:27:13;;;;;;;;;;;25.10;58.80;;;;;;5134713;27;19973;-59
2021/08/04 08:29:40;;;;;;;;;;;25.20;59.10;;;;;;5117749;27;20014;-59
2021/08/04 08:32:07;;;;;;;;;;;25.20;59.10;;;;;;5135933;27;20379;-58
2021/08/04 08:34:34;;;;;;;;;;;25.20;58.90;;;;;;5135160;27;19974;-59
2021/08/04 08:37:01;;;;;;;;;;;25.30;58.90;;;;;;5119294;27;19963;-59
2021/08/04 08:39:28;;;;;;;;;;;25.30;58.70;;;;;;5134245;27;19923;-59
2021/08/04 08:41:55;;;;;;;;;;;25.30;58.60;;;;;;5135780;27;19970;-59
2021/08/04 08:44:23;;;;;;;;;;;25.30;58.20;;;;;;5136662;27;19923;-59
2021/08/04 08:46:50;;;;;;;;;;;25.30;58.50;;;;;;5136538;27;20387;-58
2021/08/04 08:49:27;;;;;;;;;;;25.30;58.50;;;;;;5136091;27;19934;-59
2021/08/04 08:51:55;;;;;;;;;;;25.30;58.00;;;;;;5136909;27;19943;-59
2021/08/04 08:54:22;;;;;;;;;;;25.30;58.40;;;;;;5118129;27;19981;-59
2021/08/04 08:56:49;;;;;;;;;;;25.30;57.70;;;;;;5134923;27;20276;-59
2021/08/04 08:59:19;;;;;;;;;;;25.30;58.00;;;;;;5133713;27;19923;-58
2021/08/04 09:01:46;;;;;;;;;;;25.40;57.80;;;;;;5136292;27;19923;-59
2021/08/04 09:04:17;;;;;;;;;;;25.30;57.80;;;;;;5135129;27;19923;-59
2021/08/04 09:06:51;;;;;;;;;;;25.40;58.20;;;;;;5135100;27;19927;-58
2021/08/04 09:09:24;;;;;;;;;;;25.40;57.90;;;;;;5136309;27;19966;-59
2021/08/04 09:11:56;;;;;;;;;;;25.40;58.00;;;;;;5135036;27;19924;-59
2021/08/04 09:14:24;;;;;;;;;;;25.50;58.00;;;;;;5136031;27;19978;-59
2021/08/04 09:17:11;;;;;;;;;;;25.50;57.70;;;;;;5127732;27;19960;-58
2021/08/04 09:19:40;;;;;;;;;;;25.50;57.50;;;;;;5126774;27;19936;-59
2021/08/04 09:22:07;;;;;;;;;;;25.40;57.50;;;;;;5133437;27;20389;-58
2021/08/04 09:24:52;;;;;;;;;;;25.40;57.60;;;;;;5134559;27;19927;-59
2021/08/04 09:27:19;;;;;;;;;;;25.50;57.70;;;;;;5135893;27;19931;-59
2021/08/04 09:29:56;;;;;;;;;;;25.50;57.60;;;;;;5135881;27;20436;-59
2021/08/04 09:32:23;;;;;;;;;;;25.60;57.40;;;;;;5135008;27;20383;-59
2021/08/04 09:34:50;;;;;;;;;;;25.60;57.60;;;;;;5134911;27;20282;-59
2021/08/04 09:37:18;;;;;;;;;;;25.60;57.20;;;;;;5125152;27;19927;-59
2021/08/04 09:40:05;;;;;;;;;;;25.70;57.60;;;;;;5133552;27;19927;-59
2021/08/04 09:42:40;;;;;;;;;;;25.70;57.10;;;;;;5133908;27;19965;-59
2021/08/04 09:45:08;;;;;;;;;;;25.70;56.90;;;;;;5125730;27;20374;-60
2021/08/04 09:47:35;;;;;;;;;;;25.80;56.90;;;;;;5134124;27;19972;-59
2021/08/04 09:50:08;;;;;;;;;;;25.70;56.80;;;;;;5134280;27;20286;-59
2021/08/04 09:52:50;;;;;;;;;;;25.70;57.00;;;;;;5135740;27;19938;-59
2021/08/04 09:55:18;;;;;;;;;;;25.80;57.10;;;;;;5126863;27;20367;-59
2021/08/04 09:57:50;;;;;;;;;;;25.80;56.90;;;;;;5124018;27;20390;-59
2021/08/04 10:00:21;;;;;;;;;;;25.90;56.10;;;;;;5135623;27;19923;-58
2021/08/04 10:02:48;;;;;;;;;;;25.90;56.40;;;;;;5135211;27;19923;-59
2021/08/04 10:05:24;;;;;;;;;;;26.00;56.40;;;;;;5133971;27;20359;-59
2021/08/04 10:08:08;;;;;;;;;;;26.00;56.00;;;;;;5133957;27;19924;-60
2021/08/04 10:10:40;;;;;;;;;;;26.10;55.50;;;;;;5132779;27;19923;-59
2021/08/04 10:13:13;;;;;;;;;;;26.10;56.00;;;;;;5135330;27;19930;-59
2021/08/04 10:15:43;;;;;;;;;;;26.10;56.30;;;;;;5133598;27;19923;-59
2021/08/04 10:18:16;;;;;;;;;;;26.10;55.80;;;;;;5133807;27;19930;-59
2021/08/04 10:20:44;;;;;;;;;;;26.10;55.10;;;;;;5132190;27;19931;-59
2021/08/04 10:23:18;;;;;;;;;;;26.10;55.50;;;;;;5135000;27;20256;-59
2021/08/04 10:25:45;;;;;;;;;;;26.10;55.70;;;;;;5132006;27;19998;-59
2021/08/04 10:28:13;;;;;;;;;;;26.10;55.50;;;;;;5134922;27;20347;-59
2021/08/04 10:30:42;;;;;;;;;;;26.00;55.40;;;;;;5133635;27;20371;-59
2021/08/04 10:33:09;;;;;;;;;;;26.00;55.50;;;;;;5133553;27;19924;-60
2021/08/04 10:35:37;;;;;;;;;;;26.00;55.80;;;;;;5133426;27;19923;-58
2021/08/04 10:38:07;;;;;;;;;;;26.00;55.80;;;;;;5115363;27;19924;-60
2021/08/04 10:40:34;;;;;;;;;;;26.00;55.80;;;;;;5134256;27;19963;-59
2021/08/04 10:43:01;;;;;;;;;;;26.10;55.80;;;;;;5132388;27;19931;-60
2021/08/04 10:45:29;;;;;;;;;;;26.10;55.60;;;;;;5133479;27;20006;-59
2021/08/04 10:48:15;;;;;;;;;;;26.20;55.60;;;;;;5132845;27;19923;-60
2021/08/04 10:51:14;;;;;;;;;;;26.20;55.20;;;;;;5133883;27;19965;-59
2021/08/04 10:53:59;;;;;;;;;;;26.20;55.10;;;;;;5048298;28;20294;-59
2021/08/04 10:56:32;;;;;;;;;;;26.30;55.40;;;;;;5037435;28;19976;-59
2021/08/04 10:59:08;;;;;;;;;;;26.30;55.10;;;;;;5048211;28;19947;-59
2021/08/04 11:01:41;;;;;;;;;;;26.40;54.80;;;;;;5034477;28;19925;-59
2021/08/04 11:04:26;;;;;;;;;;;26.40;54.70;;;;;;5037364;28;19963;-59
2021/08/04 11:07:08;;;;;;;;;;;26.40;54.50;;;;;;5051007;28;20004;-59
2021/08/04 11:09:42;;;;;;;;;;;26.40;55.00;;;;;;5049228;28;20296;-59
2021/08/04 11:12:10;;;;;;;;;;;26.40;54.80;;;;;;5049570;28;20396;-59
2021/08/04 11:14:42;;;;;;;;;;;26.30;54.60;;;;;;5049497;28;20409;-60
2021/08/04 11:17:10;;;;;;;;;;;26.40;54.80;;;;;;5050572;28;20273;-59
2021/08/04 11:19:56;;;;;;;;;;;26.30;55.00;;;;;;5049484;28;19925;-59
2021/08/04 11:22:24;;;;;;;;;;;26.30;55.10;;;;;;5048988;28;19972;-59
2021/08/04 11:25:14;;;;;;;;;;;26.40;55.00;;;;;;5050533;28;20004;-59
2021/08/04 11:27:44;;;;;;;;;;;26.30;55.00;;;;;;5041685;28;20066;-61
2021/08/04 11:30:12;;;;;;;;;;;26.40;54.30;;;;;;5112920;27;19923;-59
2021/08/04 11:32:39;;;;;;;;;;;26.30;54.20;;;;;;5132773;27;20255;-59
2021/08/04 11:35:17;;;;;;;;;;;26.20;54.30;;;;;;5131357;27;19963;-59
2021/08/04 11:37:44;;;;;;;;;;;26.20;54.60;;;;;;5121619;27;19927;-59
2021/08/04 11:40:12;;;;;;;;;;;26.20;54.80;;;;;;5132993;27;19923;-59
2021/08/04 11:42:40;;;;;;;;;;;26.20;55.10;;;;;;5133357;27;19972;-59
2021/08/04 11:45:09;;;;;;;;;;;26.20;55.20;;;;;;5133693;28;20385;-59
2021/08/04 11:47:36;;;;;;;;;;;26.20;55.00;;;;;;5132360;28;19927;-60
2021/08/04 11:50:05;;;;;;;;;;;26.20;55.40;;;;;;5132435;28;19990;-58
2021/08/04 11:52:34;;;;;;;;;;;26.20;55.00;;;;;;5136449;27;19924;-60
2021/08/04 11:55:05;;;;;;;;;;;26.30;55.30;;;;;;5119585;27;19924;-60
2021/08/04 11:57:33;;;;;;;;;;;26.30;55.10;;;;;;5118389;27;20079;-59
2021/08/04 12:00:01;;;;;;;;;;;26.30;55.10;;;;;;5137808;27;19923;-60
2021/08/04 12:02:31;;;;;;;;;;;26.40;55.80;;;;;;5136290;27;19974;-60
2021/08/04 12:04:59;;;;;;;;;;;26.40;55.00;;;;;;5136221;27;19927;-60
2021/08/04 12:07:27;;;;;;;;;;;26.40;54.50;;;;;;5102556;28;20321;-59
2021/08/04 12:09:55;;;;;;;;;;;26.40;54.10;;;;;;5136221;27;19927;-59
2021/08/04 12:12:24;;;;;;;;;;;26.30;54.30;;;;;;5137475;27;19923;-59
2021/08/04 12:14:51;;;;;;;;;;;26.30;54.40;;;;;;5137273;27;19924;-59
2021/08/04 12:17:31;;;;;;;;;;;26.30;54.40;;;;;;5137595;27;19924;-60
2021/08/04 12:20:13;;;;;;;;;;;26.20;54.70;;;;;;5134588;27;19924;-60
2021/08/04 12:22:41;;;;;;;;;;;26.20;54.90;;;;;;5134881;27;20333;-59
2021/08/04 12:25:10;;;;;;;;;;;26.20;54.90;;;;;;5137057;27;20397;-61
2021/08/04 12:27:40;;;;;;;;;;;26.20;55.10;;;;;;5136765;27;19931;-60
2021/08/04 12:30:08;;;;;;;;;;;26.30;55.10;;;;;;5135717;27;19931;-60
2021/08/04 12:32:56;;;;;;;;;;;26.30;55.00;;;;;;5135807;27;19927;-59
2021/08/04 12:35:44;;;;;;;;;;;26.20;54.90;;;;;;5135393;27;19928;-59
2021/08/04 12:38:15;;;;;;;;;;;26.20;55.00;;;;;;5118693;27;19923;-59
2021/08/04 12:40:53;;;;;;;;;;;26.20;55.20;;;;;;5134216;27;19929;-59
2021/08/04 12:43:21;;;;;;;;;;;26.20;54.90;;;;;;5135632;27;19930;-60
2021/08/04 12:45:53;;;;;;;;;;;26.20;55.10;;;;;;5120758;27;19973;-59
2021/08/04 12:48:21;;;;;;;;;;;26.20;55.10;;;;;;5117676;27;20006;-59
2021/08/04 12:50:53;;;;;;;;;;;26.30;54.80;;;;;;5137020;27;20372;-60
2021/08/04 12:53:25;;;;;;;;;;;26.30;54.90;;;;;;5135082;27;19973;-59
2021/08/04 12:56:00;;;;;;;;;;;26.30;55.30;;;;;;5134990;27;20362;-60
2021/08/04 12:58:28;;;;;;;;;;;26.30;55.30;;;;;;5135048;27;20014;-61
2021/08/04 13:00:55;;;;;;;;;;;26.20;55.20;;;;;;5136644;27;19942;-60
2021/08/04 13:03:30;;;;;;;;;;;26.20;55.20;;;;;;5134413;27;19928;-60
2021/08/04 13:05:57;;;;;;;;;;;26.20;55.20;;;;;;5135076;27;20010;-59
2021/08/04 13:08:31;;;;;;;;;;;26.20;55.20;;;;;;5134968;27;20638;-59
2021/08/04 13:10:58;;;;;;;;;;;26.20;55.40;;;;;;5135085;27;20007;-59
2021/08/04 13:13:25;;;;;;;;;;;26.10;55.50;;;;;;5135024;27;20010;-59
2021/08/04 13:15:53;;;;;;;;;;;26.10;55.50;;;;;;5136034;27;19923;-59
2021/08/04 13:18:21;;;;;;;;;;;26.10;55.60;;;;;;5134845;27;19972;-59
2021/08/04 13:20:48;;;;;;;;;;;26.00;55.60;;;;;;5134951;27;19924;-59
2021/08/04 13:23:16;;;;;;;;;;;26.00;55.80;;;;;;5134592;27;19928;-59
2021/08/04 13:25:45;;;;;;;;;;;26.10;55.80;;;;;;5134793;27;20205;-59
2021/08/04 13:28:20;;;;;;;;;;;26.10;56.10;;;;;;5135722;27;19924;-60
2021/08/04 13:30:46;;;;;;;;;;;26.10;56.00;;;;;;5130272;27;20299;-60
2021/08/04 13:33:13;;;;;;;;;;;26.10;56.10;;;;;;5118115;27;19969;-61
2021/08/04 13:35:44;;;;;;;;;;;26.10;56.20;;;;;;5120503;27;19972;-59
2021/08/04 13:38:11;;;;;;;;;;;26.10;56.10;;;;;;5135399;27;20403;-60
2021/08/04 13:40:38;;;;;;;;;;;26.10;56.30;;;;;;5134880;27;20328;-60
2021/08/04 13:43:07;;;;;;;;;;;26.00;56.30;;;;;;5135573;27;19998;-60
2021/08/04 13:45:35;;;;;;;;;;;26.00;56.50;;;;;;5134415;27;19924;-59
2021/08/04 13:48:03;;;;;;;;;;;26.00;56.50;;;;;;5135689;27;19923;-59
2021/08/04 13:50:31;;;;;;;;;;;26.10;56.70;;;;;;5134564;27;20339;-59
2021/08/04 13:52:59;;;;;;;;;;;26.00;56.50;;;;;;5135379;27;19923;-59
2021/08/04 13:55:28;;;;;;;;;;;26.00;56.60;;;;;;5134582;27;19927;-60
2021/08/04 13:57:55;;;;;;;;;;;26.00;56.80;;;;;;5134129;27;19923;-60
2021/08/04 14:00:23;;;;;;;;;;;26.00;56.90;;;;;;5135378;27;19952;-59
2021/08/04 14:02:51;;;;;;;;;;;26.00;57.00;;;;;;5133974;27;19972;-59
2021/08/04 14:05:18;;;;;;;;;;;25.90;57.10;;;;;;5135287;27;19923;-59
2021/08/04 14:07:46;;;;;;;;;;;25.90;57.20;;;;;;5134820;27;19975;-59
2021/08/04 14:10:14;;;;;;;;;;;25.90;57.20;;;;;;5133814;27;19977;-59
2021/08/04 14:12:42;;;;;;;;;;;25.90;57.20;;;;;;5135032;27;20018;-60
2021/08/04 14:15:14;;;;;;;;;;;25.90;57.40;;;;;;5133977;27;20294;-60
2021/08/04 14:17:41;;;;;;;;;;;25.80;57.50;;;;;;5133783;27;19930;-60
2021/08/04 14:20:09;;;;;;;;;;;25.70;57.50;;;;;;5134688;27;19966;-60
2021/08/04 14:22:37;;;;;;;;;;;25.80;57.60;;;;;;5135079;27;19923;-59
2021/08/04 14:25:05;;;;;;;;;;;25.80;57.70;;;;;;5134906;27;20023;-59
2021/08/04 14:27:32;;;;;;;;;;;25.70;57.70;;;;;;5134771;27;19971;-60